Terminal Aerodrome Forecast
Issued by NWS

Home | Current Version | Previous Version | Text Only | Print | Product List | Glossary On
Versions: 1 2 3 4 5 6 7 8 9 10 11 12 13
000
FTUS45 KGJT 300537
TAFDRO
TAF
KDRO 300537Z 3006/3106 VRB03KT P6SM SCT250
     FM300800 33004KT P6SM SCT250
     FM301500 12006KT P6SM SCT250
     FM302300 25007KT P6SM SCT250
     FM310200 30007KT P6SM SCT250
     FM310500 03006KT P6SM SCT250=

USA.gov is the U.S. government's official web portal to all federal, state and local government web resources and services.